Time;durP1;ratioP1;P1;durP2;ratioP2;P2;SDS_P1;SDS_P2;PMS_P1;PMS_P2;Temp;Humidity;BMP_temperature;BMP_pressure;BME280_temperature;BME280_humidity;BME280_pressure;Samples;Min_cycle;Max_cycle;Signal;HPM_P1;HPM_P2
2022/10/01 00:01:07;;;;;;;20.80;16.20;;;;;;;14.85;70.77;98815.22;224155;1249;139925;-63
2022/10/01 00:06:20;;;;;;;22.70;17.80;;;;;;;14.87;70.66;98818.79;224680;1244;140307;-64
2022/10/01 00:11:25;;;;;;;23.60;17.60;;;;;;;14.86;70.68;98802.73;224109;1254;140326;-64
2022/10/01 00:16:30;;;;;;;21.10;17.00;;;;;;;14.84;70.61;98789.35;224775;1244;140080;-66
2022/10/01 00:21:33;;;;;;;24.00;17.90;;;;;;;14.79;70.56;98805.13;224697;1237;139841;-70
2022/10/01 00:26:37;;;;;;;22.70;16.90;;;;;;;14.74;70.42;98802.52;224150;1256;139388;-64
2022/10/01 00:31:41;;;;;;;24.20;17.40;;;;;;;14.73;70.54;98795.51;223935;1254;140501;-64
2022/10/01 00:36:44;;;;;;;24.90;18.70;;;;;;;14.73;70.54;98792.30;224201;1257;139274;-64
2022/10/01 00:41:47;;;;;;;26.40;18.10;;;;;;;14.72;70.65;98789.48;224118;1256;238812;-63
2022/10/01 00:46:51;;;;;;;24.00;16.50;;;;;;;14.71;70.62;98799.73;224792;1247;139745;-66
2022/10/01 00:51:58;;;;;;;24.60;18.20;;;;;;;14.69;70.68;98803.45;224032;1248;139165;-66
2022/10/01 00:57:05;;;;;;;25.60;17.60;;;;;;;14.68;70.70;98796.80;224859;1236;139540;-65
2022/10/01 01:02:09;;;;;;;26.60;19.00;;;;;;;14.69;70.60;98791.88;224182;1248;140106;-65
2022/10/01 01:07:13;;;;;;;24.40;18.80;;;;;;;14.72;70.63;98784.48;224871;1240;140132;-65
2022/10/01 01:12:34;;;;;;;26.50;18.90;;;;;;;14.74;70.61;98780.55;224132;1249;139358;-64
2022/10/01 01:17:48;;;;;;;26.20;19.80;;;;;;;14.74;70.60;98770.59;224065;1253;142161;-69
2022/10/01 01:23:11;;;;;;;27.00;20.90;;;;;;;14.70;70.59;98767.69;224073;1248;140510;-70
2022/10/01 01:28:22;;;;;;;27.00;20.20;;;;;;;14.65;70.53;98778.25;224115;1258;140888;-69
2022/10/01 01:33:29;;;;;;;28.90;20.50;;;;;;;14.67;70.41;98784.73;224124;1250;140343;-69
2022/10/01 01:38:39;;;;;;;28.20;21.00;;;;;;;14.72;70.57;98786.45;224780;1244;139645;-67
2022/10/01 01:43:46;;;;;;;29.30;21.00;;;;;;;14.77;70.62;98783.20;224074;1250;139992;-67
2022/10/01 01:48:52;;;;;;;29.70;21.90;;;;;;;14.80;70.57;98800.05;224196;1251;139667;-67
2022/10/01 01:53:55;;;;;;;29.60;21.30;;;;;;;14.79;70.45;98804.75;224209;1244;140095;-69
2022/10/01 01:58:59;;;;;;;31.80;21.30;;;;;;;14.73;70.23;98798.73;224065;1251;140165;-68
2022/10/01 02:04:08;;;;;;;27.70;20.20;;;;;;;14.69;70.19;98798.47;224112;1254;140107;-66
2022/10/01 02:09:27;;;;;;;34.20;21.30;;;;;;;14.73;70.40;98796.04;224108;1251;139916;-66
2022/10/01 02:14:55;;;;;;;33.00;23.00;;;;;;;14.72;70.22;98796.97;224092;1252;139674;-69
2022/10/01 02:20:08;;;;;;;33.70;22.70;;;;;;;14.69;70.40;98795.63;224135;1251;140289;-66
2022/10/01 02:25:14;;;;;;;32.10;22.10;;;;;;;14.67;70.48;98799.38;224172;1244;139390;-65
2022/10/01 02:30:17;;;;;;;;;;;;;;;14.64;70.43;98809.58;224098;1250;140190;-65
2022/10/01 02:35:21;;;;;;;31.70;22.20;;;;;;;14.64;70.46;98806.73;224814;1243;126589;-65
2022/10/01 02:40:27;;;;;;;30.70;21.70;;;;;;;14.70;70.52;98808.77;224758;1240;140962;-64
2022/10/01 02:45:35;;;;;;;30.90;21.80;;;;;;;14.72;70.36;98814.30;224591;1242;139435;-64
2022/10/01 02:50:51;;;;;;;32.20;22.90;;;;;;;14.72;70.59;98815.18;224003;1253;140397;-64
2022/10/01 02:55:55;;;;;;;;;;;;;;;14.71;70.46;98817.48;224072;1251;139502;-64
2022/10/01 03:00:58;;;;;;;30.90;21.80;;;;;;;14.68;70.50;98818.05;224367;1251;126956;-65
2022/10/01 03:06:01;;;;;;;31.70;20.90;;;;;;;14.65;70.51;98822.91;224750;1247;140414;-66
2022/10/01 03:11:07;;;;;;;36.90;23.40;;;;;;;14.90;72.40;98819.26;224739;1237;140109;-65
2022/10/01 03:16:10;;;;;;;27.70;20.30;;;;;;;16.09;75.36;98824.92;224096;1250;140715;-67
2022/10/01 03:21:13;;;;;;;36.40;25.00;;;;;;;16.94;73.77;98824.71;224100;1251;140325;-64
2022/10/01 03:26:16;;;;;;;28.90;20.80;;;;;;;17.07;70.13;98815.08;223999;1250;139653;-64
2022/10/01 03:31:19;;;;;;;32.00;21.90;;;;;;;16.60;67.95;98813.27;224196;1251;139914;-66
2022/10/01 03:36:22;;;;;;;33.90;22.40;;;;;;;16.15;67.62;98820.36;224764;1236;139408;-65
2022/10/01 03:41:26;;;;;;;32.50;24.30;;;;;;;15.78;67.72;98828.20;224042;1254;139322;-66
2022/10/01 03:46:30;;;;;;;35.10;23.60;;;;;;;15.55;67.92;98818.75;224129;1249;139767;-66
2022/10/01 03:51:34;;;;;;;35.30;22.80;;;;;;;15.36;67.98;98823.94;224769;1244;140763;-67
2022/10/01 03:56:41;;;;;;;33.50;24.20;;;;;;;15.22;67.92;98815.33;224123;1248;140929;-64
2022/10/01 04:01:44;;;;;;;34.80;24.20;;;;;;;15.07;68.00;98815.66;224049;1244;139920;-64
2022/10/01 04:06:47;;;;;;;37.00;26.00;;;;;;;14.96;68.13;98810.73;224178;1251;140188;-64
2022/10/01 04:11:50;;;;;;;36.80;25.10;;;;;;;14.86;68.39;98800.46;224130;1248;139549;-64
2022/10/01 04:16:53;;;;;;;35.80;24.00;;;;;;;14.77;68.48;98793.02;224093;1254;139931;-64
2022/10/01 04:21:56;;;;;;;33.00;23.50;;;;;;;14.73;68.46;98790.64;224067;1251;140151;-65
2022/10/01 04:26:59;;;;;;;32.80;23.30;;;;;;;14.70;68.58;98798.78;224083;1251;139314;-65
2022/10/01 04:32:02;;;;;;;34.90;24.50;;;;;;;14.65;68.69;98791.13;224073;1254;140368;-65
2022/10/01 04:37:05;;;;;;;36.00;24.70;;;;;;;14.63;68.81;98789.85;224264;1251;140343;-68
2022/10/01 04:42:08;;;;;;;35.20;25.10;;;;;;;14.59;68.85;98790.34;224095;1251;139955;-67
2022/10/01 04:47:11;;;;;;;34.60;23.40;;;;;;;14.57;68.87;98798.60;224134;1259;139788;-67
2022/10/01 04:52:14;;;;;;;33.50;22.60;;;;;;;14.56;68.85;98798.63;224161;1259;140412;-66
2022/10/01 04:57:20;;;;;;;34.90;24.60;;;;;;;14.56;68.98;98799.91;224797;1237;139731;-65
2022/10/01 05:02:23;;;;;;;36.90;24.90;;;;;;;14.54;69.18;98797.81;224152;1246;139237;-65
2022/10/01 05:07:26;;;;;;;35.60;24.90;;;;;;;14.51;69.27;98792.27;224226;1245;139447;-65
2022/10/01 05:12:29;;;;;;;38.20;25.10;;;;;;;14.49;69.32;98795.16;224039;1245;140430;-65
2022/10/01 05:17:33;;;;;;;39.80;25.50;;;;;;;14.46;69.31;98800.94;224111;1251;139390;-66
2022/10/01 05:22:36;;;;;;;40.00;25.00;;;;;;;14.46;69.26;98794.83;224804;1237;140324;-64
2022/10/01 05:27:39;;;;;;;35.90;24.70;;;;;;;14.50;69.40;98792.70;224804;1244;140765;-65
2022/10/01 05:32:52;;;;;;;37.40;26.40;;;;;;;14.55;69.79;98791.94;224189;1251;140040;-64
2022/10/01 05:38:01;;;;;;;41.20;27.00;;;;;;;14.61;69.79;98792.02;224762;1244;139979;-65
2022/10/01 05:43:04;;;;;;;36.80;25.80;;;;;;;14.63;69.78;98794.66;224070;1254;139686;-66
2022/10/01 05:48:08;;;;;;;37.50;25.80;;;;;;;14.62;69.71;98798.65;224629;1244;139767;-65
2022/10/01 05:53:12;;;;;;;34.40;24.90;;;;;;;14.67;69.70;98803.65;224054;1252;141292;-65
2022/10/01 05:58:16;;;;;;;36.20;24.40;;;;;;;14.75;69.85;98807.48;224074;1251;139715;-67
2022/10/01 06:03:18;;;;;;;35.40;24.10;;;;;;;14.76;69.88;98806.82;224172;1254;140098;-68
2022/10/01 06:08:22;;;;;;;37.10;23.70;;;;;;;14.78;69.85;98799.84;224031;1245;139598;-66
2022/10/01 06:13:25;;;;;;;37.70;24.50;;;;;;;14.81;69.65;98798.38;224221;1245;139893;-72
2022/10/01 06:18:28;;;;;;;34.10;22.60;;;;;;;14.78;69.55;98802.02;224065;1245;140070;-69
2022/10/01 06:23:32;;;;;;;32.90;23.60;;;;;;;14.78;69.62;98799.22;224068;1248;140394;-68
2022/10/01 06:28:35;;;;;;;35.60;24.20;;;;;;;14.79;69.67;98796.90;224656;1247;140319;-67
2022/10/01 06:33:38;;;;;;;37.30;25.10;;;;;;;14.87;70.14;98789.52;224056;1248;139313;-67
2022/10/01 06:38:41;;;;;;;34.90;23.70;;;;;;;15.06;70.31;98786.80;224091;1251;139831;-69
2022/10/01 06:43:47;;;;;;;40.10;24.10;;;;;;;15.07;69.79;98786.56;224179;1251;140812;-66
2022/10/01 06:48:50;;;;;;;40.20;25.30;;;;;;;15.04;69.51;98787.52;224202;1251;141612;-65
2022/10/01 06:53:53;;;;;;;38.00;24.00;;;;;;;14.98;69.35;98787.48;224055;1238;139493;-64
2022/10/01 06:58:56;;;;;;;35.30;23.90;;;;;;;15.02;69.61;98786.08;224010;1243;140750;-65
2022/10/01 07:03:59;;;;;;;38.40;25.00;;;;;;;15.16;69.81;98786.39;224083;1251;140706;-67
2022/10/01 07:09:03;;;;;;;32.50;23.40;;;;;;;15.17;69.59;98779.30;223904;1244;139467;-65
2022/10/01 07:14:06;;;;;;;37.50;24.80;;;;;;;15.19;69.59;98772.02;224714;1244;139982;-66
2022/10/01 07:19:10;;;;;;;37.00;24.20;;;;;;;15.27;69.74;98765.58;224226;1253;139634;-64
2022/10/01 07:24:13;;;;;;;31.80;22.40;;;;;;;15.28;69.40;98766.15;224125;1251;139358;-63
2022/10/01 07:29:16;;;;;;;31.40;21.00;;;;;;;15.29;69.12;98763.73;223984;1250;140267;-64
2022/10/01 07:34:19;;;;;;;30.40;21.90;;;;;;;15.32;69.35;98758.16;224146;1251;140763;-67
2022/10/01 07:39:22;;;;;;;31.50;22.70;;;;;;;15.33;69.15;98759.97;224161;1245;140007;-67
2022/10/01 07:44:27;;;;;;;32.20;22.00;;;;;;;15.34;69.32;98758.46;224083;1237;140280;-67
2022/10/01 07:49:30;;;;;;;29.60;21.40;;;;;;;15.34;69.35;98750.62;224243;1245;139808;-67
2022/10/01 07:54:33;;;;;;;29.90;20.60;;;;;;;15.37;69.36;98749.88;224810;1244;139592;-67
2022/10/01 07:59:37;;;;;;;31.80;20.40;;;;;;;15.44;69.39;98746.23;223988;1245;140827;-67
2022/10/01 08:10:03;;;;;;;32.10;21.70;;;;;;;15.57;69.71;98750.60;224805;1244;139544;-64
2022/10/01 08:15:09;;;;;;;30.90;18.60;;;;;;;15.59;69.46;98744.17;224092;1248;141084;-67
2022/10/01 08:20:15;;;;;;;33.60;21.90;;;;;;;15.62;69.74;98742.67;224098;1251;140058;-66
2022/10/01 08:25:18;;;;;;;31.00;21.40;;;;;;;15.64;69.70;98739.44;224221;1247;140185;-64
2022/10/01 08:30:21;;;;;;;29.00;20.10;;;;;;;15.76;69.85;98739.88;224670;1246;140553;-65
2022/10/01 08:35:25;;;;;;;38.90;21.90;;;;;;;15.83;69.41;98731.01;224770;1247;139936;-64
2022/10/01 08:40:29;;;;;;;35.50;23.10;;;;;;;15.84;69.37;98729.11;224073;1252;139802;-64
2022/10/01 08:45:43;;;;;;;41.30;26.20;;;;;;;15.82;69.52;98729.31;224009;1251;139266;-65
2022/10/01 08:51:11;;;;;;;39.90;26.30;;;;;;;15.76;69.21;98721.61;224698;1244;140227;-65
2022/10/01 08:56:22;;;;;;;39.70;27.60;;;;;;;15.76;69.30;98719.31;224087;1254;139854;-65
2022/10/01 09:01:26;;;;;;;38.90;25.60;;;;;;;15.81;69.40;98710.09;224042;1244;139772;-64
2022/10/01 09:06:29;;;;;;;40.40;26.30;;;;;;;15.84;69.26;98705.11;224033;1254;140203;-65
2022/10/01 09:12:02;;;;;;;40.00;27.30;;;;;;;15.87;69.62;98700.99;224805;1242;139973;-65
2022/10/01 09:17:14;;;;;;;41.10;27.10;;;;;;;15.89;69.44;98697.19;224388;1230;139990;-66
2022/10/01 09:22:33;;;;;;;42.20;29.20;;;;;;;15.92;69.36;98689.45;224100;1250;141214;-65
2022/10/01 09:27:39;;;;;;;47.90;30.50;;;;;;;15.97;69.71;98682.48;224769;1244;139522;-66
2022/10/01 09:32:48;;;;;;;43.40;29.60;;;;;;;16.08;69.80;98679.89;224051;1251;140364;-66
2022/10/01 09:37:57;;;;;;;41.00;28.70;;;;;;;16.20;69.60;98679.05;224881;1244;140744;-66
2022/10/01 09:43:06;;;;;;;43.90;30.00;;;;;;;16.28;69.78;98670.94;224229;1246;140162;-66
2022/10/01 09:48:19;;;;;;;48.10;29.10;;;;;;;16.37;69.92;98666.70;224096;1248;140815;-65
2022/10/01 09:53:28;;;;;;;35.10;24.60;;;;;;;16.44;69.72;98664.48;224088;1248;139289;-64
2022/10/01 09:58:34;;;;;;;36.50;24.70;;;;;;;16.51;69.50;98661.11;224073;1255;139801;-64
2022/10/01 10:03:37;;;;;;;30.90;21.90;;;;;;;16.58;69.33;98663.20;224030;1251;141072;-69
2022/10/01 10:08:44;;;;;;;31.00;22.00;;;;;;;16.67;69.46;98660.04;224054;1252;140323;-68
2022/10/01 10:13:58;;;;;;;35.70;23.60;;;;;;;16.70;69.12;98655.40;224081;1253;139340;-69
2022/10/01 10:19:08;;;;;;;30.60;21.90;;;;;;;16.71;68.95;98650.27;224848;1244;139494;-68
2022/10/01 10:24:33;;;;;;;28.40;19.50;;;;;;;16.77;69.30;98643.14;224679;1244;139293;-68
2022/10/01 10:29:36;;;;;;;27.40;18.40;;;;;;;16.84;69.14;98636.92;224030;1248;139872;-67
2022/10/01 10:34:45;;;;;;;63.40;43.10;;;;;;;16.95;68.94;98627.49;224661;1237;140287;-67
2022/10/01 10:39:51;;;;;;;34.20;21.40;;;;;;;17.02;68.83;98621.44;223984;1250;140152;-68
2022/10/01 10:45:02;;;;;;;48.70;22.80;;;;;;;17.01;68.57;98614.14;224654;1244;140078;-68
2022/10/01 10:50:26;;;;;;;35.80;21.80;;;;;;;17.02;68.65;98601.16;224770;1244;139239;-67
2022/10/01 10:55:30;;;;;;;27.70;17.60;;;;;;;16.99;68.15;98594.83;224816;1236;139830;-68
2022/10/01 11:00:42;;;;;;;26.70;18.00;;;;;;;16.92;68.11;98586.34;224735;1244;140508;-67
2022/10/01 11:05:50;;;;;;;21.20;15.00;;;;;;;16.86;68.10;98579.29;224020;1251;139867;-66
2022/10/01 11:11:02;;;;;;;16.60;12.00;;;;;;;16.89;68.38;98564.64;224119;1251;140305;-66
2022/10/01 11:16:11;;;;;;;16.30;11.20;;;;;;;16.98;68.26;98547.83;223945;1248;139884;-66
2022/10/01 11:21:47;;;;;;;20.10;13.20;;;;;;;17.01;68.23;98534.56;223991;1251;139682;-67
2022/10/01 11:27:02;;;;;;;23.50;16.30;;;;;;;17.00;67.88;98538.48;223430;1255;140520;-69
2022/10/01 11:32:18;;;;;;;20.80;14.40;;;;;;;16.91;67.83;98526.10;224598;1244;140211;-69
2022/10/01 11:37:58;;;;;;;17.00;12.50;;;;;;;16.88;67.93;98517.96;223907;1251;140441;-66
2022/10/01 11:43:15;;;;;;;17.80;12.90;;;;;;;16.93;68.02;98504.86;224832;1242;141146;-67
2022/10/01 11:48:28;;;;;;;23.10;16.20;;;;;;;17.02;68.05;98502.64;223715;1251;141262;-67
2022/10/01 11:53:43;;;;;;;25.40;17.70;;;;;;;17.07;67.97;98497.27;224667;1250;140246;-68
2022/10/01 11:59:12;;;;;;;31.90;21.00;;;;;;;17.05;67.80;98495.64;223946;1251;139578;-67
2022/10/01 12:04:36;;;;;;;28.10;18.90;;;;;;;16.97;67.70;98491.95;224038;1252;140148;-69
2022/10/01 12:10:15;;;;;;;24.80;17.70;;;;;;;16.90;67.70;98486.17;223903;1250;139694;-66
2022/10/01 12:15:43;;;;;;;25.60;19.60;;;;;;;16.96;67.81;98474.83;223522;1250;140711;-67
2022/10/01 12:20:50;;;;;;;27.90;20.40;;;;;;;17.02;68.10;98462.84;224084;1251;141344;-67
2022/10/01 12:26:07;;;;;;;27.80;20.40;;;;;;;17.11;68.19;98456.22;224113;1251;139066;-67
2022/10/01 12:31:42;;;;;;;21.60;16.70;;;;;;;17.17;68.23;98448.31;224792;1245;139664;-67
2022/10/01 12:36:54;;;;;;;14.60;11.90;;;;;;;17.21;68.32;98439.39;223944;1259;139978;-67
2022/10/01 12:42:24;;;;;;;16.20;13.20;;;;;;;17.21;67.93;98432.43;223915;1259;140499;-66
2022/10/01 12:47:49;;;;;;;16.30;13.00;;;;;;;17.16;67.83;98423.27;223889;1251;141416;-67
2022/10/01 12:53:31;;;;;;;19.10;12.80;;;;;;;17.07;68.07;98421.65;223766;1246;140976;-67
2022/10/01 12:58:43;;;;;;;27.20;15.30;;;;;;;17.08;68.59;98416.91;224626;1234;140738;-68
2022/10/01 13:04:17;;;;;;;16.80;12.00;;;;;;;17.77;71.61;98411.08;224068;1251;140419;-65
2022/10/01 13:09:35;;;;;;;14.20;11.40;;;;;;;18.59;71.27;98399.86;224070;1247;140484;-66
2022/10/01 13:14:43;;;;;;;15.20;11.10;;;;;;;19.13;70.26;98388.68;224626;1244;142263;-65
2022/10/01 13:20:14;;;;;;;14.30;10.90;;;;;;;19.50;69.30;98373.71;224185;1251;139807;-64
2022/10/01 13:25:35;;;;;;;14.10;11.10;;;;;;;19.73;68.42;98365.69;224808;1244;139437;-65
2022/10/01 13:30:54;;;;;;;12.40;9.40;;;;;;;19.87;67.68;98369.70;224689;1243;139384;-65
2022/10/01 13:36:08;;;;;;;12.60;9.50;;;;;;;19.89;66.64;98363.56;224171;1250;139520;-64
2022/10/01 13:41:24;;;;;;;13.70;10.90;;;;;;;19.87;66.46;98365.61;223992;1245;140110;-64
2022/10/01 13:46:32;;;;;;;14.40;11.20;;;;;;;19.96;66.60;98360.59;223993;1252;140474;-64
2022/10/01 13:51:39;;;;;;;15.80;11.00;;;;;;;20.05;66.16;98353.08;224078;1250;140180;-65
2022/10/01 13:56:42;;;;;;;39.30;30.50;;;;;;;20.04;65.67;98351.95;224026;1255;140025;-68
2022/10/01 14:01:45;;;;;;;42.60;30.40;;;;;;;19.82;64.37;98343.90;224160;1255;140152;-67
2022/10/01 14:06:56;;;;;;;20.60;15.00;;;;;;;19.30;63.54;98336.17;224084;1249;140167;-66
2022/10/01 14:17:38;;;;;;;18.20;13.40;;;;;;;18.48;64.21;98326.46;224054;1251;141016;-67
2022/10/01 14:23:09;;;;;;;18.80;14.10;;;;;;;18.24;64.67;98323.45;224034;1244;139871;-64
2022/10/01 14:28:44;;;;;;;19.50;14.00;;;;;;;18.00;65.27;98315.16;224049;1254;139971;-65
2022/10/01 14:34:06;;;;;;;18.40;14.00;;;;;;;17.81;65.70;98310.64;223947;1252;139894;-63
2022/10/01 14:39:19;;;;;;;20.30;13.40;;;;;;;17.65;66.13;98310.84;224067;1252;140742;-64
2022/10/01 14:44:39;;;;;;;19.40;14.30;;;;;;;17.58;66.44;98304.13;223991;1245;141578;-66
2022/10/01 14:49:42;;;;;;;20.10;14.30;;;;;;;17.52;66.91;98297.51;223934;1251;140348;-66
2022/10/01 14:54:57;;;;;;;18.60;13.80;;;;;;;17.47;67.30;98292.29;224709;1250;140094;-65
2022/10/01 15:00:06;;;;;;;21.40;14.30;;;;;;;17.43;67.83;98288.08;223894;1254;139729;-65
2022/10/01 15:05:23;;;;;;;16.30;12.90;;;;;;;17.43;67.90;98282.63;223970;1248;140183;-66
2022/10/01 15:10:27;;;;;;;14.20;11.60;;;;;;;17.42;68.08;98278.66;223860;1243;141204;-67
2022/10/01 15:15:40;;;;;;;17.00;13.00;;;;;;;17.40;67.97;98273.45;223956;1249;140456;-68
2022/10/01 15:21:04;;;;;;;18.90;14.50;;;;;;;17.40;68.42;98270.09;223964;1245;140015;-67
2022/10/01 15:26:18;;;;;;;18.80;14.60;;;;;;;17.38;68.37;98268.65;224802;1244;139757;-67
2022/10/01 15:31:21;;;;;;;20.50;15.50;;;;;;;17.34;68.57;98266.89;224171;1250;139598;-65
2022/10/01 15:36:24;;;;;;;20.10;14.60;;;;;;;17.29;68.72;98265.70;224061;1253;139668;-66
2022/10/01 15:41:30;;;;;;;23.40;16.00;;;;;;;17.26;68.67;98269.71;223973;1251;140757;-67
2022/10/01 15:46:34;;;;;;;24.70;17.70;;;;;;;17.30;68.98;98277.67;224029;1254;140846;-66
2022/10/01 15:57:24;;;;;;;24.20;18.40;;;;;;;17.36;69.11;98265.48;224065;1244;140061;-66
2022/10/01 16:02:30;;;;;;;20.70;16.40;;;;;;;17.28;68.79;98256.55;223941;1251;139173;-66
2022/10/01 16:07:34;;;;;;;;;;;;;;;17.19;68.58;98258.36;224047;1238;140483;-67
2022/10/01 16:12:37;;;;;;;19.00;15.40;;;;;;;17.12;68.59;98257.10;224065;1247;127307;-64
2022/10/01 16:17:53;;;;;;;23.90;17.00;;;;;;;17.09;68.65;98252.27;224728;1250;140126;-64
2022/10/01 16:23:54;;;;;;;22.60;16.70;;;;;;;17.04;68.82;98248.60;224029;1250;141415;-63
2022/10/01 16:29:12;;;;;;;20.80;16.40;;;;;;;17.00;68.76;98246.51;223108;1265;139534;-63
2022/10/01 16:34:17;;;;;;;20.40;16.50;;;;;;;16.93;68.81;98247.52;223818;1250;139428;-65
2022/10/01 16:39:20;;;;;;;20.70;15.60;;;;;;;16.91;68.78;98244.04;223918;1251;140262;-66
2022/10/01 16:44:23;;;;;;;18.90;14.50;;;;;;;16.91;68.90;98244.41;223960;1251;140844;-71
2022/10/01 16:49:26;;;;;;;22.40;16.40;;;;;;;17.08;69.50;98240.39;224075;1255;142826;-65
2022/10/01 16:54:29;;;;;;;21.30;14.80;;;;;;;17.08;68.94;98247.33;224058;1247;139515;-65
2022/10/01 16:59:32;;;;;;;21.80;16.80;;;;;;;17.05;68.93;98247.63;224013;1249;139971;-68
2022/10/01 17:04:35;;;;;;;21.10;15.40;;;;;;;16.99;68.63;98238.74;224715;1240;139714;-69
2022/10/01 17:09:39;;;;;;;19.10;14.80;;;;;;;16.96;68.57;98240.30;224628;1244;140660;-68
2022/10/01 17:14:42;;;;;;;16.70;12.90;;;;;;;16.99;68.70;98233.88;223933;1257;140672;-67
2022/10/01 17:19:45;;;;;;;22.40;15.70;;;;;;;17.06;68.90;98227.81;224796;1243;140346;-66
2022/10/01 17:24:48;;;;;;;25.10;16.30;;;;;;;17.09;68.68;98221.08;224042;1251;139714;-66
2022/10/01 17:29:52;;;;;;;24.80;16.90;;;;;;;17.06;68.59;98216.02;224082;1254;140041;-68
2022/10/01 17:34:55;;;;;;;20.50;15.80;;;;;;;16.98;68.39;98214.65;224080;1254;139851;-68
2022/10/01 17:39:58;;;;;;;21.90;15.90;;;;;;;16.87;68.32;98210.52;223992;1251;139991;-66
2022/10/01 17:45:03;;;;;;;21.00;16.40;;;;;;;16.85;68.44;98206.86;224731;1243;140410;-66
2022/10/01 17:50:06;;;;;;;22.00;17.00;;;;;;;16.82;68.43;98203.20;224631;1244;140267;-66
2022/10/01 17:55:11;;;;;;;22.40;16.70;;;;;;;16.81;68.41;98202.41;224647;1241;140761;-68
2022/10/01 18:00:13;;;;;;;22.50;17.60;;;;;;;16.77;68.36;98199.55;224034;1251;139793;-67
2022/10/01 18:05:17;;;;;;;24.50;17.70;;;;;;;16.73;68.38;98191.35;224052;1257;140460;-66
2022/10/01 18:10:19;;;;;;;24.80;16.20;;;;;;;16.69;68.25;98194.83;224713;1241;139420;-66
2022/10/01 18:15:23;;;;;;;21.10;17.00;;;;;;;16.68;68.38;98194.68;224046;1251;140501;-66
2022/10/01 18:20:26;;;;;;;25.50;17.80;;;;;;;16.67;68.31;98199.33;224049;1251;141373;-67
2022/10/01 18:25:29;;;;;;;21.90;17.40;;;;;;;16.65;68.31;98197.30;224819;1241;139697;-67
2022/10/01 18:30:32;;;;;;;27.00;18.00;;;;;;;16.63;68.25;98196.27;224097;1251;139827;-66
2022/10/01 18:35:35;;;;;;;22.20;17.60;;;;;;;16.59;68.31;98204.60;224738;1241;139595;-67
2022/10/01 18:40:42;;;;;;;25.40;18.50;;;;;;;16.58;68.43;98203.79;223916;1248;139773;-66
2022/10/01 18:45:45;;;;;;;129.00;94.00;;;;;;;16.56;68.22;98202.33;224033;1243;139708;-65
2022/10/01 18:51:09;;;;;;;25.20;19.30;;;;;;;16.60;68.45;98201.77;224725;1244;140839;-64
2022/10/01 18:56:39;;;;;;;32.10;24.80;;;;;;;16.80;69.18;98203.87;224132;1252;140547;-66
2022/10/01 19:01:54;;;;;;;24.80;18.00;;;;;;;16.94;68.54;98206.09;224855;1254;139359;-67
2022/10/01 19:07:33;;;;;;;26.80;18.90;;;;;;;16.92;68.10;98205.25;223978;1254;140182;-65
2022/10/01 19:12:41;;;;;;;24.00;17.80;;;;;;;16.79;67.69;98207.41;224698;1244;139742;-67
2022/10/01 19:17:49;;;;;;;26.30;17.50;;;;;;;16.68;68.08;98212.59;224117;1252;139477;-68
2022/10/01 19:23:19;;;;;;;21.80;15.80;;;;;;;16.66;67.84;98236.27;224023;1251;139139;-65
2022/10/01 19:28:38;;;;;;;20.50;13.10;;;;;;;16.62;67.69;98255.86;224749;1244;139860;-67
2022/10/01 19:33:49;;;;;;;10.70;6.70;;;;;;;16.39;67.05;98276.98;224094;1261;140427;-66
2022/10/01 19:38:56;;;;;;;6.10;4.60;;;;;;;16.05;66.60;98277.38;224109;1251;138833;-68
2022/10/01 19:44:05;;;;;;;5.70;3.50;;;;;;;15.78;66.66;98280.48;224139;1246;139878;-67
2022/10/01 19:49:08;;;;;;;4.30;3.20;;;;;;;15.49;66.34;98284.33;224175;1248;140487;-65
2022/10/01 19:54:18;;;;;;;5.50;3.80;;;;;;;15.31;66.44;98288.70;224086;1246;140088;-67
2022/10/01 19:59:21;;;;;;;2.90;2.30;;;;;;;15.12;66.56;98297.84;224803;1240;140015;-70
2022/10/01 20:04:39;;;;;;;3.50;2.00;;;;;;;14.91;66.26;98311.66;224117;1250;139263;-68
2022/10/01 20:09:45;;;;;;;4.50;1.90;;;;;;;14.66;66.26;98318.04;224793;1252;140600;-66
2022/10/01 20:15:10;;;;;;;4.10;1.70;;;;;;;14.42;66.28;98323.23;224053;1260;140127;-71
2022/10/01 20:20:25;;;;;;;6.30;1.60;;;;;;;14.31;66.60;98332.80;224233;1244;141014;-68
2022/10/01 20:25:45;;;;;;;3.10;1.70;;;;;;;14.27;66.72;98342.91;224836;1236;140571;-67
2022/10/01 20:31:27;;;;;;;2.50;1.70;;;;;;;14.21;66.80;98348.47;224076;1248;139210;-66
2022/10/01 20:36:42;;;;;;;3.90;2.00;;;;;;;14.11;66.88;98350.27;223898;1249;139040;-67
2022/10/01 20:41:48;;;;;;;3.70;2.00;;;;;;;14.04;67.06;98348.92;224791;1244;139332;-64
2022/10/01 20:46:57;;;;;;;5.90;2.10;;;;;;;13.95;67.19;98356.83;223997;1252;138915;-63
2022/10/01 20:52:15;;;;;;;2.60;1.80;;;;;;;13.92;67.27;98356.14;223877;1253;139551;-64
2022/10/01 20:57:32;;;;;;;2.40;1.80;;;;;;;13.97;67.53;98357.14;224781;1244;140556;-63
2022/10/01 21:02:51;;;;;;;4.00;2.20;;;;;;;14.02;67.57;98359.98;224073;1248;139641;-63
2022/10/01 21:08:06;;;;;;;3.30;2.30;;;;;;;14.02;67.52;98359.81;224199;1251;139227;-64
2022/10/01 21:13:30;;;;;;;3.40;2.40;;;;;;;14.01;67.55;98360.58;224125;1252;139633;-64
2022/10/01 21:19:07;;;;;;;4.70;2.40;;;;;;;13.96;67.31;98369.20;224073;1251;139354;-64
2022/10/01 21:24:19;;;;;;;8.80;4.80;;;;;;;13.98;67.52;98360.15;224021;1255;140485;-65
2022/10/01 21:29:52;;;;;;;5.10;2.70;;;;;;;14.02;67.61;98355.89;224009;1254;140561;-64
2022/10/01 21:35:21;;;;;;;5.30;3.70;;;;;;;14.07;67.91;98364.20;224099;1244;139154;-63
2022/10/01 21:40:51;;;;;;;7.50;3.90;;;;;;;14.07;67.76;98367.94;224857;1244;139606;-66
2022/10/01 21:46:06;;;;;;;6.40;4.80;;;;;;;14.05;67.76;98371.10;224676;1241;139418;-66
2022/10/01 21:51:25;;;;;;;7.70;4.50;;;;;;;13.99;67.68;98375.02;224706;1233;139165;-67
2022/10/01 21:57:18;;;;;;;5.60;3.80;;;;;;;14.00;67.85;98384.90;224160;1254;139566;-66
2022/10/01 22:02:58;;;;;;;6.50;4.20;;;;;;;14.04;68.09;98393.88;224600;1244;139342;-63
2022/10/01 22:08:17;;;;;;;8.10;4.00;;;;;;;14.02;67.86;98395.25;224900;1237;139034;-64
2022/10/01 22:13:46;;;;;;;6.50;4.30;;;;;;;13.99;67.95;98391.23;224811;1247;139473;-65
2022/10/01 22:18:54;;;;;;;4.70;3.30;;;;;;;13.91;67.90;98398.16;224214;1251;139573;-69
2022/10/01 22:24:07;;;;;;;3.80;3.10;;;;;;;13.92;68.09;98396.83;224076;1244;139805;-67
2022/10/01 22:29:17;;;;;;;5.60;3.50;;;;;;;13.98;68.08;98398.98;224098;1248;139459;-64
2022/10/01 22:34:26;;;;;;;5.20;3.60;;;;;;;14.00;68.06;98394.59;224120;1251;139505;-67
2022/10/01 22:39:34;;;;;;;6.50;3.40;;;;;;;13.97;67.97;98393.19;224128;1257;139386;-65
2022/10/01 22:44:37;;;;;;;5.80;3.20;;;;;;;13.92;67.86;98393.30;224259;1251;139030;-62
2022/10/01 22:49:59;;;;;;;5.00;3.20;;;;;;;13.85;67.86;98392.06;224905;1244;139896;-62
2022/10/01 22:55:40;;;;;;;8.50;3.30;;;;;;;13.86;67.74;98393.39;223919;1259;140275;-61
2022/10/01 23:01:14;;;;;;;5.70;3.50;;;;;;;13.91;67.92;98396.91;224129;1250;139633;-61
2022/10/01 23:06:27;;;;;;;6.30;3.60;;;;;;;13.90;67.92;98396.33;224785;1244;139613;-62
2022/10/01 23:11:45;;;;;;;5.30;3.40;;;;;;;13.90;67.93;98399.30;224048;1251;140314;-66
2022/10/01 23:17:01;;;;;;;6.40;3.50;;;;;;;13.82;67.74;98402.85;224790;1244;139346;-69
2022/10/01 23:22:34;;;;;;;5.40;3.20;;;;;;;13.77;67.65;98407.20;224761;1241;141145;-67
2022/10/01 23:28:13;;;;;;;5.00;3.30;;;;;;;13.75;67.76;98406.86;224086;1253;140015;-66
2022/10/01 23:33:26;;;;;;;3.60;2.50;;;;;;;13.77;68.00;98412.77;224807;1244;139701;-64
2022/10/01 23:38:29;;;;;;;6.30;2.90;;;;;;;13.76;68.03;98418.19;224182;1251;138977;-66